createdAt,value
2023-04-03T00:00:21.763Z,99091.42
2023-04-03T00:01:14.095Z,99090.35
2023-04-03T00:01:46.076Z,99099.23
2023-04-03T00:02:18.461Z,99094.86
2023-04-03T00:02:50.862Z,99093.48
2023-04-03T00:03:23.191Z,99096.41
2023-04-03T00:03:56.144Z,99093.83
2023-04-03T00:04:28.402Z,99095.73
2023-04-03T00:05:01.315Z,99100.81
2023-04-03T00:05:34.103Z,99102.42
2023-04-03T00:06:10.443Z,99097.06
2023-04-03T00:06:42.496Z,99099.59
2023-04-03T00:07:15.371Z,99102.84
2023-04-03T00:07:47.535Z,99102.70
2023-04-03T00:08:20.503Z,99105.58
2023-04-03T00:08:53.484Z,99102.70
2023-04-03T00:09:25.695Z,99104.98
2023-04-03T00:09:57.750Z,99105.04
2023-04-03T00:10:30.054Z,99101.91
2023-04-03T00:11:03.039Z,99103.26
2023-04-03T00:11:35.254Z,99104.71
2023-04-03T00:12:07.443Z,99106.81
2023-04-03T00:12:39.794Z,99106.05
2023-04-03T00:13:12.541Z,99110.02
2023-04-03T00:13:45.357Z,99101.73
2023-04-03T00:14:17.356Z,99103.16
2023-04-03T00:14:49.422Z,99108.73
2023-04-03T00:15:21.465Z,99100.42
2023-04-03T00:15:54.441Z,99100.37
2023-04-03T00:16:26.510Z,99100.95
2023-04-03T00:16:58.775Z,99099.41
2023-04-03T00:17:31.235Z,99102.50
2023-04-03T00:18:04.429Z,99100.02
2023-04-03T00:18:37.668Z,99101.40
2023-04-03T00:19:12.404Z,99101.98
2023-04-03T00:19:44.424Z,99101.30
2023-04-03T00:20:17.009Z,99103.81
2023-04-03T00:20:49.913Z,99104.34
2023-04-03T00:21:22.075Z,99102.14
2023-04-03T00:21:54.112Z,99101.65
2023-04-03T00:22:27.347Z,99102.33
2023-04-03T00:22:59.916Z,99105.23
2023-04-03T00:23:31.860Z,99101.77
2023-04-03T00:24:04.223Z,99104.11
2023-04-03T00:24:36.513Z,99103.92
2023-04-03T00:25:09.449Z,99104.05
2023-04-03T00:25:41.399Z,99105.58
2023-04-03T00:26:13.566Z,99103.82
2023-04-03T00:26:45.502Z,99102.16
2023-04-03T00:27:17.560Z,99106.09
2023-04-03T00:27:50.249Z,99104.22
2023-04-03T00:28:22.491Z,99106.88
2023-04-03T00:28:54.426Z,99105.70
2023-04-03T00:29:26.303Z,99100.36
2023-04-03T00:29:58.343Z,99106.09
2023-04-03T00:30:30.584Z,99106.98
2023-04-03T00:31:02.702Z,99103.13
2023-04-03T00:31:34.729Z,99104.52
2023-04-03T00:32:06.751Z,99103.84
2023-04-03T00:32:39.098Z,99106.08
2023-04-03T00:33:14.564Z,99102.28
2023-04-03T00:33:46.883Z,99105.38
2023-04-03T00:34:19.580Z,99104.36
2023-04-03T00:34:51.845Z,99103.04
2023-04-03T00:35:24.307Z,99103.24
2023-04-03T00:35:56.303Z,99102.17
2023-04-03T00:36:28.563Z,99101.46
2023-04-03T00:37:01.188Z,99105.45
2023-04-03T00:37:33.711Z,99103.32
2023-04-03T00:38:05.856Z,99103.15
2023-04-03T00:38:38.318Z,99099.21
2023-04-03T00:39:10.780Z,99101.18
2023-04-03T00:39:42.742Z,99101.41
2023-04-03T00:40:16.473Z,99104.60
2023-04-03T00:40:49.919Z,99099.98
2023-04-03T00:41:21.962Z,99100.12
2023-04-03T00:41:54.022Z,99100.66
2023-04-03T00:42:26.186Z,99102.19
2023-04-03T00:43:00.183Z,99099.34
2023-04-03T00:43:32.314Z,99102.13
2023-04-03T00:44:42.676Z,99103.04
2023-04-03T00:45:46.889Z,99102.14
2023-04-03T00:46:19.262Z,99103.73
2023-04-03T00:46:51.180Z,99107.52
2023-04-03T00:47:24.998Z,99103.10
2023-04-03T00:48:00.437Z,99105.01
2023-04-03T00:48:39.002Z,99104.97
2023-04-03T00:49:11.070Z,99103.06
2023-04-03T00:49:44.375Z,99101.73
2023-04-03T00:50:16.592Z,99104.54
2023-04-03T00:50:49.681Z,99105.34
2023-04-03T00:51:25.319Z,99107.77
2023-04-03T00:51:59.429Z,99107.99
2023-04-03T00:52:32.281Z,99105.69
2023-04-03T00:53:06.897Z,99106.54
2023-04-03T00:54:05.475Z,99107.90
2023-04-03T00:54:38.229Z,99111.11
2023-04-03T00:55:11.002Z,99111.27
2023-04-03T00:55:44.512Z,99109.30
2023-04-03T00:56:22.209Z,99109.19
2023-04-03T00:56:57.492Z,99107.38
2023-04-03T00:57:31.900Z,99109.69
2023-04-03T00:58:07.513Z,99109.41
2023-04-03T00:58:57.924Z,99109.23
2023-04-03T00:59:35.418Z,99110.09
2023-04-03T01:00:11.921Z,99108.30
2023-04-03T01:00:52.301Z,99114.40
2023-04-03T01:01:27.046Z,99111.77
2023-04-03T01:02:00.461Z,99108.58
2023-04-03T01:02:32.775Z,99107.48
2023-04-03T01:03:05.386Z,99104.85
2023-04-03T01:03:37.888Z,99107.50
2023-04-03T01:04:28.484Z,99106.59
2023-04-03T01:05:00.623Z,99109.98
2023-04-03T01:05:33.405Z,99104.90
2023-04-03T01:06:06.379Z,99103.86
2023-04-03T01:06:38.588Z,99104.96
2023-04-03T01:07:17.388Z,99103.92
2023-04-03T01:07:51.840Z,99108.42
2023-04-03T01:08:24.105Z,99107.20
2023-04-03T01:08:56.689Z,99105.78
2023-04-03T01:09:30.267Z,99105.97
2023-04-03T01:10:06.863Z,99108.13
2023-04-03T01:10:38.964Z,99109.71
2023-04-03T01:11:11.239Z,99109.14
2023-04-03T01:11:43.166Z,99108.53
2023-04-03T01:12:22.969Z,99107.03
2023-04-03T01:12:55.363Z,99110.85
2023-04-03T01:13:33.303Z,99110.60
2023-04-03T01:14:06.760Z,99114.02
2023-04-03T01:14:38.584Z,99109.08
2023-04-03T01:15:17.840Z,99110.11
2023-04-03T01:15:50.105Z,99111.13
2023-04-03T01:16:22.546Z,99113.99
2023-04-03T01:16:55.633Z,99109.84
2023-04-03T01:17:45.912Z,99114.21
2023-04-03T01:18:18.157Z,99109.84
2023-04-03T01:18:50.296Z,99105.98
2023-04-03T01:19:24.738Z,99109.48
2023-04-03T01:20:18.072Z,99110.42
2023-04-03T01:20:56.138Z,99108.52
2023-04-03T01:21:53.993Z,99109.45
2023-04-03T01:22:34.751Z,99113.54
2023-04-03T01:23:10.291Z,99111.13
2023-04-03T01:24:00.675Z,99111.58
2023-04-03T01:24:41.903Z,99109.09
2023-04-03T01:25:14.088Z,99110.44
2023-04-03T01:25:53.021Z,99114.45
2023-04-03T01:26:26.597Z,99114.40
2023-04-03T01:27:00.006Z,99114.54
2023-04-03T01:27:31.904Z,99110.87
2023-04-03T01:28:11.592Z,99116.13
2023-04-03T01:28:43.498Z,99113.97
2023-04-03T01:29:15.709Z,99117.55
2023-04-03T01:29:48.121Z,99116.52
2023-04-03T01:30:21.970Z,99118.50
2023-04-03T01:31:15.996Z,99118.44
2023-04-03T01:31:53.978Z,99116.98
2023-04-03T01:32:26.156Z,99116.39
2023-04-03T01:32:58.231Z,99121.62
2023-04-03T01:33:30.945Z,99124.58
2023-04-03T01:34:03.727Z,99118.37
2023-04-03T01:34:35.760Z,99121.86
2023-04-03T01:35:10.228Z,99121.56
2023-04-03T01:35:42.340Z,99128.27
2023-04-03T01:36:24.922Z,99127.85
2023-04-03T01:36:56.879Z,99126.94
2023-04-03T01:37:28.741Z,99136.31
2023-04-03T01:38:00.804Z,99129.86
2023-04-03T01:38:33.437Z,99134.00
2023-04-03T01:39:05.615Z,99131.66
2023-04-03T01:39:37.555Z,99130.16
2023-04-03T01:40:10.232Z,99133.61
2023-04-03T01:40:42.466Z,99131.65
2023-04-03T01:41:14.619Z,99133.40
2023-04-03T01:41:46.993Z,99137.74
2023-04-03T01:42:18.834Z,99130.66
2023-04-03T01:42:50.664Z,99136.21
2023-04-03T01:43:22.742Z,99128.69
2023-04-03T01:43:55.309Z,99137.67
2023-04-03T01:44:27.231Z,99139.61
2023-04-03T01:44:59.179Z,99134.70
2023-04-03T01:45:31.649Z,99132.27
2023-04-03T01:46:03.945Z,99130.69
2023-04-03T01:46:36.075Z,99135.27
2023-04-03T01:47:08.431Z,99135.55
2023-04-03T01:47:40.495Z,99139.17
2023-04-03T01:48:13.861Z,99143.55
2023-04-03T01:48:46.418Z,99140.12
2023-04-03T01:49:18.472Z,99142.77
2023-04-03T01:49:50.312Z,99144.04
2023-04-03T01:50:22.372Z,99140.17
2023-04-03T01:50:55.167Z,99152.15
2023-04-03T01:51:27.485Z,99148.31
2023-04-03T01:51:59.540Z,99139.98
2023-04-03T01:52:31.938Z,99144.30
2023-04-03T01:53:04.052Z,99151.80
2023-04-03T01:53:36.236Z,99146.94
2023-04-03T01:54:08.255Z,99152.71
2023-04-03T01:54:40.417Z,99151.95
2023-04-03T01:55:12.439Z,99149.91
2023-04-03T01:55:44.639Z,99143.41
2023-04-03T01:56:16.651Z,99153.16
2023-04-03T01:56:48.535Z,99149.90
2023-04-03T01:57:20.707Z,99150.40
2023-04-03T01:57:52.728Z,99144.07
2023-04-03T01:58:25.186Z,99148.54
2023-04-03T01:58:57.138Z,99155.38
2023-04-03T01:59:29.223Z,99146.30
2023-04-03T02:00:01.550Z,99153.45
2023-04-03T02:00:34.657Z,99152.13
2023-04-03T02:01:07.249Z,99150.19
2023-04-03T02:01:39.242Z,99155.30
2023-04-03T02:02:13.054Z,99151.48
2023-04-03T02:02:45.105Z,99149.88
2023-04-03T02:03:17.479Z,99152.25
2023-04-03T02:03:49.580Z,99153.04
2023-04-03T02:04:22.017Z,99153.14
2023-04-03T02:04:55.463Z,99151.52
2023-04-03T02:05:27.690Z,99150.46
2023-04-03T02:05:59.986Z,99150.49
2023-04-03T02:06:32.237Z,99148.77
2023-04-03T02:07:04.374Z,99152.84
2023-04-03T02:07:36.789Z,99149.02
2023-04-03T02:08:08.766Z,99146.94
2023-04-03T02:08:42.277Z,99148.66
2023-04-03T02:09:14.303Z,99148.63
2023-04-03T02:09:46.357Z,99152.69
2023-04-03T02:10:19.129Z,99151.93
2023-04-03T02:10:51.595Z,99155.89
2023-04-03T02:11:23.519Z,99152.80
2023-04-03T02:11:56.119Z,99152.15
2023-04-03T02:12:28.162Z,99157.34
2023-04-03T02:13:00.299Z,99150.15
2023-04-03T02:13:32.273Z,99150.92
2023-04-03T02:14:04.437Z,99152.93
2023-04-03T02:14:36.459Z,99152.31
2023-04-03T02:15:09.022Z,99148.75
2023-04-03T02:15:41.190Z,99153.77
2023-04-03T02:16:13.810Z,99159.89
2023-04-03T02:16:45.937Z,99157.46
2023-04-03T02:17:18.186Z,99153.30
2023-04-03T02:17:50.423Z,99149.46
2023-04-03T02:18:22.484Z,99156.75
2023-04-03T02:18:54.406Z,99153.60
2023-04-03T02:19:26.598Z,99154.20
2023-04-03T02:19:58.617Z,99155.38
2023-04-03T02:20:30.591Z,99155.52
2023-04-03T02:21:02.633Z,99156.84
2023-04-03T02:21:34.455Z,99158.12
2023-04-03T02:22:06.615Z,99159.27
2023-04-03T02:22:38.777Z,99155.13
2023-04-03T02:23:10.820Z,99154.69
2023-04-03T02:23:42.972Z,99157.80
2023-04-03T02:24:15.349Z,99159.35
2023-04-03T02:24:47.298Z,99161.33
2023-04-03T02:25:19.344Z,99159.70
2023-04-03T02:25:51.484Z,99160.48
2023-04-03T02:26:23.340Z,99167.43
2023-04-03T02:26:55.384Z,99164.35
2023-04-03T02:27:27.691Z,99160.65
2023-04-03T02:27:59.609Z,99169.44
2023-04-03T02:28:31.536Z,99167.20
2023-04-03T02:29:03.517Z,99161.22
2023-04-03T02:29:35.607Z,99162.20
2023-04-03T02:30:11.115Z,99165.80
2023-04-03T02:30:42.933Z,99165.08
2023-04-03T02:31:17.129Z,99162.83
2023-04-03T02:31:49.070Z,99163.89
2023-04-03T02:32:21.021Z,99165.97
2023-04-03T02:32:53.713Z,99164.23
2023-04-03T02:33:25.766Z,99165.31
2023-04-03T02:33:58.006Z,99172.63
2023-04-03T02:34:30.049Z,99164.14
2023-04-03T02:35:02.325Z,99167.17
2023-04-03T02:35:34.294Z,99166.55
2023-04-03T02:36:07.799Z,99164.00
2023-04-03T02:36:39.886Z,99162.17
2023-04-03T02:37:12.059Z,99160.86
2023-04-03T02:37:44.323Z,99162.55
2023-04-03T02:38:16.110Z,99173.55
2023-04-03T02:38:48.951Z,99164.85
2023-04-03T02:39:20.967Z,99164.63
2023-04-03T02:39:53.145Z,99163.56
2023-04-03T02:40:25.126Z,99165.42
2023-04-03T02:41:05.727Z,99164.55
2023-04-03T02:41:37.994Z,99167.80
2023-04-03T02:42:10.568Z,99167.50
2023-04-03T02:42:42.698Z,99169.77
2023-04-03T02:43:14.854Z,99172.00
2023-04-03T02:43:46.699Z,99173.45
2023-04-03T02:44:19.470Z,99168.90
2023-04-03T02:44:51.207Z,99168.89
2023-04-03T02:45:23.172Z,99173.61
2023-04-03T02:45:55.343Z,99165.44
2023-04-03T02:46:27.439Z,99163.36
2023-04-03T02:46:59.455Z,99169.66
2023-04-03T02:47:31.704Z,99174.33
2023-04-03T02:48:04.568Z,99170.20
2023-04-03T02:48:37.171Z,99182.60
2023-04-03T02:49:09.387Z,99171.77
2023-04-03T02:49:41.320Z,99169.62
2023-04-03T02:50:13.266Z,99174.80
2023-04-03T02:50:45.318Z,99174.45
2023-04-03T02:51:17.249Z,99184.70
2023-04-03T02:51:49.342Z,99174.25
2023-04-03T02:52:21.935Z,99177.67
2023-04-03T02:52:54.071Z,99184.60
2023-04-03T02:53:26.190Z,99185.15
2023-04-03T02:53:58.156Z,99178.84
2023-04-03T02:54:31.214Z,99174.63
2023-04-03T02:55:04.192Z,99175.48
2023-04-03T02:55:36.344Z,99178.59
2023-04-03T02:56:08.327Z,99175.96
2023-04-03T02:56:40.374Z,99174.91
2023-04-03T02:57:12.710Z,99175.19
2023-04-03T02:57:44.882Z,99180.79
2023-04-03T02:58:17.084Z,99180.62
2023-04-03T02:58:49.205Z,99185.91
2023-04-03T02:59:21.240Z,99178.66
2023-04-03T02:59:53.217Z,99180.58
2023-04-03T03:00:25.528Z,99179.20
2023-04-03T03:00:57.575Z,99186.06
2023-04-03T03:01:32.107Z,99188.84
2023-04-03T03:02:04.297Z,99189.77
2023-04-03T03:02:36.412Z,99193.88
2023-04-03T03:03:08.531Z,99194.66
2023-04-03T03:03:40.616Z,99186.02
2023-04-03T03:04:12.870Z,99186.71
2023-04-03T03:04:45.069Z,99186.56
2023-04-03T03:05:17.973Z,99189.77
2023-04-03T03:05:50.055Z,99187.52
2023-04-03T03:06:22.110Z,99190.48
2023-04-03T03:06:54.246Z,99186.75
2023-04-03T03:07:26.600Z,99184.83
2023-04-03T03:07:58.657Z,99195.58
2023-04-03T03:08:30.818Z,99196.95
2023-04-03T03:09:04.160Z,99204.36
2023-04-03T03:09:36.149Z,99202.71
2023-04-03T03:10:08.599Z,99202.80
2023-04-03T03:10:40.695Z,99193.80
2023-04-03T03:11:12.939Z,99197.41
2023-04-03T03:11:44.977Z,99196.08
2023-04-03T03:12:21.931Z,99193.77
2023-04-03T03:12:54.096Z,99194.89
2023-04-03T03:13:26.139Z,99194.00
2023-04-03T03:13:58.733Z,99200.42
2023-04-03T03:14:30.753Z,99199.09
2023-04-03T03:15:02.724Z,99200.80
2023-04-03T03:15:34.649Z,99201.42
2023-04-03T03:16:07.290Z,99206.20
2023-04-03T03:16:39.272Z,99198.54
2023-04-03T03:17:11.224Z,99195.13
2023-04-03T03:17:43.803Z,99202.02
2023-04-03T03:18:15.934Z,99197.45
2023-04-03T03:18:48.124Z,99202.71
2023-04-03T03:19:20.429Z,99204.57
2023-04-03T03:19:52.493Z,99199.80
2023-04-03T03:20:24.372Z,99199.19
2023-04-03T03:20:58.441Z,99204.41
2023-04-03T03:21:30.386Z,99206.51
2023-04-03T03:22:02.554Z,99200.88
2023-04-03T03:22:35.722Z,99198.02
2023-04-03T03:23:07.585Z,99199.52
2023-04-03T03:23:40.762Z,99199.22
2023-04-03T03:24:12.699Z,99199.84
2023-04-03T03:24:44.856Z,99196.90
2023-04-03T03:25:16.866Z,99196.31
2023-04-03T03:25:48.722Z,99201.06
2023-04-03T03:26:20.707Z,99196.45
2023-04-03T03:26:52.896Z,99201.12
2023-04-03T03:27:25.303Z,99197.14
2023-04-03T03:27:57.262Z,99196.37
2023-04-03T03:28:29.213Z,99194.80
2023-04-03T03:29:01.410Z,99202.70
2023-04-03T03:29:33.336Z,99206.29
2023-04-03T03:30:06.401Z,99203.38
2023-04-03T03:30:38.353Z,99206.84
2023-04-03T03:31:11.245Z,99204.34
2023-04-03T03:31:43.298Z,99202.70
2023-04-03T03:32:15.644Z,99206.55
2023-04-03T03:32:47.639Z,99199.32
2023-04-03T03:33:19.832Z,99203.84
2023-04-03T03:33:51.774Z,99200.21
2023-04-03T03:34:23.623Z,99198.80
2023-04-03T03:34:55.794Z,99205.52
2023-04-03T03:35:28.046Z,99203.20
2023-04-03T03:36:00.883Z,99200.70
2023-04-03T03:36:32.873Z,99214.80
2023-04-03T03:37:05.315Z,99203.10
2023-04-03T03:37:37.178Z,99203.48
2023-04-03T03:38:09.592Z,99208.07
2023-04-03T03:38:41.466Z,99208.23
2023-04-03T03:39:13.534Z,99203.73
2023-04-03T03:39:45.696Z,99207.92
2023-04-03T03:40:18.102Z,99202.95
2023-04-03T03:40:51.627Z,99200.84
2023-04-03T03:41:23.783Z,99205.64
2023-04-03T03:41:55.830Z,99210.04
2023-04-03T03:42:27.878Z,99208.32
2023-04-03T03:43:00.148Z,99207.91
2023-04-03T03:43:32.495Z,99206.17
2023-04-03T03:44:05.061Z,99213.13
2023-04-03T03:44:36.924Z,99206.73
2023-04-03T03:45:09.892Z,99206.55
2023-04-03T03:45:41.854Z,99204.64
2023-04-03T03:46:13.794Z,99201.18
2023-04-03T03:46:45.977Z,99201.51
2023-04-03T03:47:17.933Z,99200.64
2023-04-03T03:47:49.970Z,99204.52
2023-04-03T03:48:22.729Z,99204.63
2023-04-03T03:48:55.057Z,99208.04
2023-04-03T03:49:26.917Z,99205.02
2023-04-03T03:49:59.064Z,99210.02
2023-04-03T03:50:31.230Z,99209.65
2023-04-03T03:51:03.714Z,99206.77
2023-04-03T03:51:36.135Z,99208.73
2023-04-03T03:52:11.165Z,99207.90
2023-04-03T03:52:43.117Z,99206.72
2023-04-03T03:53:15.755Z,99209.23
2023-04-03T03:53:47.768Z,99205.98
2023-04-03T03:54:19.923Z,99214.61
2023-04-03T03:54:52.082Z,99209.02
2023-04-03T03:55:24.403Z,99211.00
2023-04-03T03:55:56.468Z,99214.79
2023-04-03T03:56:28.393Z,99219.48
2023-04-03T03:57:00.470Z,99213.88
2023-04-03T03:57:32.672Z,99215.03
2023-04-03T03:58:04.664Z,99216.12
2023-04-03T03:58:36.593Z,99219.63
2023-04-03T03:59:08.549Z,99217.17
2023-04-03T03:59:42.442Z,99222.88
2023-04-03T04:00:15.125Z,99218.30
2023-04-03T04:00:47.351Z,99219.57
2023-04-03T04:01:19.448Z,99217.11
2023-04-03T04:01:51.636Z,99219.30
2023-04-03T04:02:23.940Z,99226.70
2023-04-03T04:02:57.836Z,99220.94
2023-04-03T04:03:31.558Z,99216.34
2023-04-03T04:04:03.843Z,99222.95
2023-04-03T04:04:35.771Z,99225.80
2023-04-03T04:05:08.706Z,99220.55
2023-04-03T04:05:40.675Z,99225.98
2023-04-03T04:06:12.798Z,99227.30
2023-04-03T04:06:44.751Z,99228.30
2023-04-03T04:07:16.781Z,99228.13
2023-04-03T04:07:48.867Z,99229.10
2023-04-03T04:08:20.805Z,99235.46
2023-04-03T04:08:52.684Z,99228.89
2023-04-03T04:09:24.630Z,99231.34
2023-04-03T04:09:56.749Z,99230.30
2023-04-03T04:10:28.810Z,99234.87
2023-04-03T04:11:00.885Z,99227.50
2023-04-03T04:11:33.930Z,99233.61
2023-04-03T04:12:06.612Z,99233.30
2023-04-03T04:12:38.471Z,99233.66
2023-04-03T04:13:10.419Z,99230.02
2023-04-03T04:13:42.240Z,99236.19
2023-04-03T04:14:14.352Z,99241.58
2023-04-03T04:14:47.365Z,99235.45
2023-04-03T04:15:19.462Z,99236.09
2023-04-03T04:15:51.575Z,99232.61
2023-04-03T04:16:23.766Z,99238.36
2023-04-03T04:16:55.806Z,99235.74
2023-04-03T04:17:27.788Z,99234.41
2023-04-03T04:17:59.959Z,99237.95
2023-04-03T04:18:32.057Z,99239.67
2023-04-03T04:19:04.710Z,99237.23
2023-04-03T04:19:38.708Z,99237.02
2023-04-03T04:20:11.493Z,99238.25
2023-04-03T04:20:46.113Z,99239.34
2023-04-03T04:21:18.203Z,99239.04
2023-04-03T04:21:50.916Z,99239.58
2023-04-03T04:22:22.952Z,99238.52
2023-04-03T04:22:54.907Z,99238.49
2023-04-03T04:23:26.891Z,99237.27
2023-04-03T04:23:59.033Z,99239.77
2023-04-03T04:24:31.264Z,99241.36
2023-04-03T04:25:03.742Z,99237.73
2023-04-03T04:25:35.981Z,99239.77
2023-04-03T04:26:08.353Z,99237.11
2023-04-03T04:26:40.394Z,99232.14
2023-04-03T04:27:12.436Z,99234.83
2023-04-03T04:27:44.495Z,99237.73
2023-04-03T04:28:16.757Z,99241.36
2023-04-03T04:28:48.699Z,99239.41
2023-04-03T04:29:20.860Z,99235.76
2023-04-03T04:29:52.811Z,99233.51
2023-04-03T04:30:25.058Z,99244.25
2023-04-03T04:30:57.114Z,99245.22
2023-04-03T04:31:29.546Z,99244.66
2023-04-03T04:32:03.271Z,99245.36
2023-04-03T04:32:35.247Z,99251.61
2023-04-03T04:33:07.470Z,99249.27
2023-04-03T04:33:40.035Z,99247.16
2023-04-03T04:34:13.514Z,99253.27
2023-04-03T04:34:45.461Z,99248.67
2023-04-03T04:35:17.787Z,99251.02
2023-04-03T04:35:50.700Z,99243.77
2023-04-03T04:36:22.977Z,99245.92
2023-04-03T04:36:55.361Z,99244.48
2023-04-03T04:37:27.885Z,99248.16
2023-04-03T04:38:00.432Z,99253.73
2023-04-03T04:38:32.384Z,99248.95
2023-04-03T04:39:04.345Z,99250.64
2023-04-03T04:39:36.383Z,99243.30
2023-04-03T04:40:08.957Z,99248.88
2023-04-03T04:40:41.970Z,99257.65
2023-04-03T04:41:14.086Z,99250.97
2023-04-03T04:41:46.228Z,99256.89
2023-04-03T04:42:18.179Z,99255.97
2023-04-03T04:42:50.238Z,99253.79
2023-04-03T04:43:22.284Z,99257.80
2023-04-03T04:43:54.339Z,99255.53
2023-04-03T04:44:26.282Z,99252.48
2023-04-03T04:44:58.129Z,99257.35
2023-04-03T04:45:30.184Z,99251.16
2023-04-03T04:46:06.257Z,99258.10
2023-04-03T04:46:38.450Z,99256.41
2023-04-03T04:47:10.845Z,99257.65
2023-04-03T04:47:42.738Z,99255.81
2023-04-03T04:48:15.162Z,99253.52
2023-04-03T04:48:47.406Z,99256.98
2023-04-03T04:49:19.470Z,99255.86
2023-04-03T04:49:51.741Z,99255.20
2023-04-03T04:50:23.998Z,99259.23
2023-04-03T04:50:56.330Z,99256.27
2023-04-03T04:51:29.542Z,99262.34
2023-04-03T04:52:05.757Z,99259.61
2023-04-03T04:52:39.143Z,99262.17
2023-04-03T04:53:11.515Z,99258.04
2023-04-03T04:53:43.657Z,99262.15
2023-04-03T04:54:15.961Z,99262.15
2023-04-03T04:54:48.065Z,99263.73
2023-04-03T04:55:20.131Z,99260.98
2023-04-03T04:55:53.006Z,99265.15
2023-04-03T04:56:26.173Z,99258.60
2023-04-03T04:56:58.474Z,99255.33
2023-04-03T04:57:30.637Z,99266.48
2023-04-03T04:58:02.645Z,99260.41
2023-04-03T04:58:35.112Z,99264.69
2023-04-03T04:59:07.295Z,99264.60
2023-04-03T04:59:39.604Z,99260.56
2023-04-03T05:00:12.590Z,99258.79
2023-04-03T05:00:44.903Z,99265.52
2023-04-03T05:01:17.301Z,99268.27
2023-04-03T05:01:49.498Z,99265.89
2023-04-03T05:02:21.719Z,99267.48
2023-04-03T05:02:53.723Z,99266.69
2023-04-03T05:03:25.603Z,99266.77
2023-04-03T05:03:57.483Z,99268.40
2023-04-03T05:04:29.578Z,99274.63
2023-04-03T05:05:04.416Z,99268.44
2023-04-03T05:05:38.519Z,99275.05
2023-04-03T05:06:10.940Z,99273.06
2023-04-03T05:06:42.941Z,99270.48
2023-04-03T05:07:15.202Z,99277.30
2023-04-03T05:07:47.351Z,99278.60
2023-04-03T05:08:19.597Z,99275.06
2023-04-03T05:08:52.469Z,99281.14
2023-04-03T05:09:24.565Z,99276.92
2023-04-03T05:09:56.588Z,99282.17
2023-04-03T05:10:28.522Z,99281.05
2023-04-03T05:11:01.563Z,99275.29
2023-04-03T05:11:33.953Z,99285.88
2023-04-03T05:12:06.154Z,99278.81
2023-04-03T05:12:38.343Z,99282.27
2023-04-03T05:13:10.366Z,99279.30
2023-04-03T05:13:42.367Z,99279.92
2023-04-03T05:14:14.542Z,99279.25
2023-04-03T05:14:46.779Z,99281.02
2023-04-03T05:15:18.951Z,99280.36
2023-04-03T05:15:50.927Z,99279.44
2023-04-03T05:16:23.178Z,99283.67
2023-04-03T05:16:56.183Z,99288.66
2023-04-03T05:17:28.211Z,99282.79
2023-04-03T05:18:00.610Z,99279.27
2023-04-03T05:18:32.710Z,99291.19
2023-04-03T05:19:05.469Z,99293.44
2023-04-03T05:19:37.602Z,99287.80
2023-04-03T05:20:10.638Z,99290.90
2023-04-03T05:20:43.956Z,99290.95
2023-04-03T05:21:16.335Z,99291.47
2023-04-03T05:21:48.920Z,99288.09
2023-04-03T05:22:21.147Z,99293.08
2023-04-03T05:22:53.193Z,99296.73
2023-04-03T05:23:25.676Z,99291.59
2023-04-03T05:23:57.610Z,99291.33
2023-04-03T05:24:29.576Z,99294.80
2023-04-03T05:25:01.608Z,99301.39
2023-04-03T05:25:33.806Z,99303.27
2023-04-03T05:26:06.334Z,99299.17
2023-04-03T05:26:39.103Z,99297.45
2023-04-03T05:27:11.540Z,99301.29
2023-04-03T05:27:43.697Z,99301.79
2023-04-03T05:28:15.976Z,99300.97
2023-04-03T05:28:47.908Z,99304.44
2023-04-03T05:29:19.957Z,99304.66
2023-04-03T05:29:53.460Z,99309.52
2023-04-03T05:30:26.214Z,99304.23
2023-04-03T05:31:00.053Z,99307.35
2023-04-03T05:31:32.180Z,99304.46
2023-04-03T05:32:04.966Z,99302.63
2023-04-03T05:32:37.115Z,99303.08
2023-04-03T05:33:09.182Z,99303.39
2023-04-03T05:33:41.304Z,99305.63
2023-04-03T05:34:13.471Z,99303.52
2023-04-03T05:34:45.503Z,99306.85
2023-04-03T05:35:17.613Z,99298.89
2023-04-03T05:35:50.140Z,99308.58
2023-04-03T05:36:22.275Z,99306.89
2023-04-03T05:36:54.521Z,99306.20
2023-04-03T05:37:26.887Z,99306.33
2023-04-03T05:37:59.356Z,99301.83
2023-04-03T05:38:31.590Z,99309.92
2023-04-03T05:39:04.730Z,99304.63
2023-04-03T05:39:36.832Z,99310.10
2023-04-03T05:40:12.025Z,99312.04
2023-04-03T05:40:44.098Z,99308.67
2023-04-03T05:41:16.724Z,99308.23
2023-04-03T05:41:48.514Z,99307.55
2023-04-03T05:42:20.470Z,99310.73
2023-04-03T05:42:54.190Z,99302.41
2023-04-03T05:43:26.522Z,99308.44
2023-04-03T05:43:58.584Z,99305.00
2023-04-03T05:44:30.706Z,99302.86
2023-04-03T05:45:02.974Z,99303.48
2023-04-03T05:45:35.078Z,99307.01
2023-04-03T05:46:21.442Z,99304.90
2023-04-03T05:46:53.584Z,99304.82
2023-04-03T05:47:25.724Z,99304.93
2023-04-03T05:47:57.593Z,99306.30
2023-04-03T05:48:29.415Z,99306.64
2023-04-03T05:49:01.671Z,99309.10
2023-04-03T05:49:33.732Z,99310.02
2023-04-03T05:50:06.379Z,99312.58
2023-04-03T05:50:42.030Z,99309.63
2023-04-03T05:51:24.229Z,99310.72
2023-04-03T05:51:56.382Z,99306.23
2023-04-03T05:52:32.415Z,99306.52
2023-04-03T05:53:05.794Z,99304.11
2023-04-03T05:53:37.946Z,99305.50
2023-04-03T05:54:28.149Z,99305.29
2023-04-03T05:55:00.729Z,99308.67
2023-04-03T05:55:32.735Z,99306.91
2023-04-03T05:56:05.328Z,99306.96
2023-04-03T05:56:37.148Z,99311.79
2023-04-03T05:57:09.121Z,99305.25
2023-04-03T05:57:41.072Z,99305.48
2023-04-03T05:58:13.814Z,99310.19
2023-04-03T05:58:45.867Z,99312.65
2023-04-03T05:59:18.881Z,99315.86
2023-04-03T05:59:51.009Z,99318.32
2023-04-03T06:00:23.502Z,99314.54
2023-04-03T06:00:55.915Z,99306.69
2023-04-03T06:01:27.693Z,99310.52
2023-04-03T06:01:59.577Z,99307.96
2023-04-03T06:02:32.030Z,99323.08
2023-04-03T06:03:04.092Z,99321.25
2023-04-03T06:03:38.475Z,99309.37
2023-04-03T06:04:11.824Z,99316.67
2023-04-03T06:04:44.888Z,99326.61
2023-04-03T06:05:17.008Z,99310.59
2023-04-03T06:05:48.905Z,99317.30
2023-04-03T06:06:22.790Z,99320.96
2023-04-03T06:06:58.352Z,99312.56
2023-04-03T06:07:30.777Z,99319.77
2023-04-03T06:08:03.760Z,99325.75
2023-04-03T06:08:35.940Z,99321.75
2023-04-03T06:09:07.961Z,99316.41
2023-04-03T06:09:40.497Z,99327.34
2023-04-03T06:10:13.496Z,99324.82
2023-04-03T06:10:46.294Z,99326.24
2023-04-03T06:11:18.250Z,99329.05
2023-04-03T06:11:50.770Z,99330.83
2023-04-03T06:12:23.350Z,99324.84
2023-04-03T06:12:55.308Z,99323.27
2023-04-03T06:13:27.663Z,99333.64
2023-04-03T06:13:59.609Z,99326.13
2023-04-03T06:14:31.449Z,99324.00
2023-04-03T06:15:04.219Z,99327.62
2023-04-03T06:15:36.084Z,99329.85
2023-04-03T06:16:15.895Z,99335.48
2023-04-03T06:16:47.914Z,99329.98
2023-04-03T06:17:20.099Z,99339.42
2023-04-03T06:17:52.400Z,99329.19
2023-04-03T06:18:24.817Z,99334.77
2023-04-03T06:18:56.777Z,99324.40
2023-04-03T06:19:29.447Z,99328.64
2023-04-03T06:20:01.390Z,99336.25
2023-04-03T06:20:33.441Z,99337.77
2023-04-03T06:21:05.824Z,99330.34
2023-04-03T06:21:38.647Z,99330.62
2023-04-03T06:22:12.253Z,99331.14
2023-04-03T06:22:44.136Z,99333.21
2023-04-03T06:23:16.574Z,99337.11
2023-04-03T06:23:48.522Z,99333.67
2023-04-03T06:24:22.332Z,99339.35
2023-04-03T06:24:54.558Z,99340.56
2023-04-03T06:25:27.224Z,99334.38
2023-04-03T06:25:59.396Z,99342.00
2023-04-03T06:26:31.636Z,99331.45
2023-04-03T06:27:04.198Z,99340.73
2023-04-03T06:27:36.146Z,99345.63
2023-04-03T06:28:10.615Z,99349.91